Time;durP1;ratioP1;P1;durP2;ratioP2;P2;SDS_P1;SDS_P2;PMS_P1;PMS_P2;Temp;Humidity;BMP_temperature;BMP_pressure;BME280_temperature;BME280_humidity;BME280_pressure;Samples;Min_cycle;Max_cycle;Signal;HPM_P1;HPM_P2
2022/11/16 00:01:14;;;;;;;52.83;32.90;;;;;;;5.40;100.00;92560.13;5110381;28;20270;-71
2022/11/16 00:03:40;;;;;;;51.67;31.50;;;;;;;5.42;100.00;92549.53;5108874;28;20188;-71
2022/11/16 00:06:07;;;;;;;50.87;34.47;;;;;;;5.26;100.00;92543.47;5109224;28;20230;-71
2022/11/16 00:08:37;;;;;;;61.97;34.57;;;;;;;5.65;100.00;92559.53;5110321;28;20190;-71
2022/11/16 00:11:11;;;;;;;61.60;36.63;;;;;;;5.33;100.00;92532.91;5110652;28;20216;-71
2022/11/16 00:13:37;;;;;;;63.07;37.40;;;;;;;5.24;100.00;92549.91;5110104;28;20353;-71
2022/11/16 00:16:04;;;;;;;66.80;39.47;;;;;;;5.35;100.00;92531.66;5110043;28;20864;-72
2022/11/16 00:18:30;;;;;;;58.40;37.27;;;;;;;5.42;100.00;92541.75;5108708;28;20177;-71
2022/11/16 00:20:56;;;;;;;61.83;36.30;;;;;;;5.58;100.00;92546.81;5094620;28;20244;-71
2022/11/16 00:23:22;;;;;;;62.43;35.07;;;;;;;5.57;100.00;92532.28;5090708;28;20176;-71
2022/11/16 00:25:47;;;;;;;60.40;35.90;;;;;;;5.62;100.00;92536.75;5103800;28;20216;-71
2022/11/16 00:28:13;;;;;;;60.97;35.17;;;;;;;5.55;100.00;92533.56;5110508;28;20249;-71
2022/11/16 00:30:38;;;;;;;56.03;34.83;;;;;;;5.46;100.00;92522.13;5110808;28;20228;-70
2022/11/16 00:33:05;;;;;;;58.87;34.60;;;;;;;5.36;100.00;92528.00;5109079;28;20223;-71
2022/11/16 00:35:31;;;;;;;58.27;36.87;;;;;;;5.45;100.00;92533.53;5107179;28;20283;-70
2022/11/16 00:37:56;;;;;;;57.10;35.37;;;;;;;5.34;100.00;92537.06;5109206;28;20210;-72
2022/11/16 00:40:22;;;;;;;57.70;36.87;;;;;;;5.32;100.00;92532.16;5107388;28;20223;-71
2022/11/16 00:42:47;;;;;;;66.70;36.47;;;;;;;5.18;100.00;92535.38;5109860;28;20212;-71
2022/11/16 00:45:13;;;;;;;65.90;35.10;;;;;;;5.24;100.00;92529.22;5108087;28;20208;-71
2022/11/16 00:47:38;;;;;;;61.93;35.17;;;;;;;5.05;100.00;92534.00;5108536;28;20219;-71
2022/11/16 00:50:04;;;;;;;58.50;35.57;;;;;;;5.09;100.00;92527.28;5108416;28;20228;-71
2022/11/16 00:52:30;;;;;;;61.67;36.83;;;;;;;4.90;100.00;92516.53;5109280;28;20220;-71
2022/11/16 00:54:55;;;;;;;57.23;36.33;;;;;;;5.08;100.00;92522.34;5108924;28;20240;-71
2022/11/16 00:57:21;;;;;;;62.17;37.27;;;;;;;5.03;100.00;92514.59;5110492;28;20198;-71
2022/11/16 00:59:47;;;;;;;55.37;35.30;;;;;;;5.16;100.00;92516.72;5107262;28;20242;-71
2022/11/16 01:02:12;;;;;;;59.30;35.90;;;;;;;5.13;100.00;92470.66;5108805;28;20184;-71
2022/11/16 01:04:37;;;;;;;62.63;34.50;;;;;;;5.26;100.00;92498.72;5107548;28;20244;-71
2022/11/16 01:07:03;;;;;;;60.03;33.60;;;;;;;5.43;100.00;92496.75;5110407;28;20199;-72
2022/11/16 01:09:28;;;;;;;53.53;31.73;;;;;;;5.49;100.00;92499.13;5108890;28;20231;-71
2022/11/16 01:12:09;;;;;;;51.33;32.90;;;;;;;5.38;100.00;92486.34;5108378;28;20195;-71
2022/11/16 01:14:39;;;;;;;57.27;31.97;;;;;;;5.45;100.00;92486.94;5106824;28;20231;-71
2022/11/16 01:17:04;;;;;;;50.40;30.23;;;;;;;5.40;100.00;92486.91;5109946;28;20180;-71
2022/11/16 01:19:30;;;;;;;54.10;28.30;;;;;;;5.21;100.00;92483.94;5108868;28;20299;-71
2022/11/16 01:21:56;;;;;;;45.70;28.00;;;;;;;5.30;100.00;92477.25;5110309;28;20214;-70
2022/11/16 01:24:22;;;;;;;45.83;29.20;;;;;;;5.06;100.00;92470.09;5107319;28;20176;-72
2022/11/16 01:26:47;;;;;;;41.73;27.17;;;;;;;5.09;100.00;92469.63;5109166;28;20184;-71
2022/11/16 01:29:12;;;;;;;48.43;28.40;;;;;;;5.08;100.00;92483.56;5106364;28;20193;-71
2022/11/16 01:31:38;;;;;;;47.13;25.73;;;;;;;4.98;100.00;92485.03;5107495;28;20243;-71
2022/11/16 01:34:03;;;;;;;43.80;26.63;;;;;;;5.10;100.00;92489.28;5106866;28;20232;-71
2022/11/16 01:36:29;;;;;;;46.33;28.37;;;;;;;4.96;100.00;92468.97;5108443;28;20231;-71
2022/11/16 01:38:55;;;;;;;43.60;26.27;;;;;;;5.15;100.00;92476.38;5108283;28;20214;-71
2022/11/16 01:41:23;;;;;;;34.20;25.50;;;;;;;5.13;100.00;92481.00;5109549;28;20249;-71
2022/11/16 01:44:02;;;;;;;36.40;24.47;;;;;;;5.27;100.00;92479.56;5106905;28;20767;-71
2022/11/16 01:46:29;;;;;;;36.67;24.13;;;;;;;5.24;100.00;92467.13;5088856;28;20212;-70
2022/11/16 01:49:15;;;;;;;38.50;25.87;;;;;;;5.41;100.00;92475.50;5088439;28;20215;-71
2022/11/16 01:51:46;;;;;;;37.50;25.13;;;;;;;5.47;100.00;92471.91;5108261;28;20224;-72
2022/11/16 01:54:12;;;;;;;39.00;26.33;;;;;;;5.47;100.00;92471.91;5105581;28;20229;-72
2022/11/16 01:56:40;;;;;;;35.93;25.17;;;;;;;5.56;100.00;92465.22;5109828;28;20175;-71
2022/11/16 01:59:06;;;;;;;33.80;23.97;;;;;;;5.38;100.00;92455.28;5108966;28;20191;-70
2022/11/16 02:01:31;;;;;;;38.80;24.47;;;;;;;5.49;100.00;92467.25;5107679;28;21164;-71
2022/11/16 02:03:56;;;;;;;38.97;25.07;;;;;;;5.37;100.00;92459.69;5107616;28;20232;-72
2022/11/16 02:06:25;;;;;;;32.57;22.00;;;;;;;5.29;100.00;92465.34;5107188;28;20283;-71
2022/11/16 02:12:43;;;;;;;32.70;23.20;;;;;;;5.16;100.00;92455.44;5108657;28;20211;-71
2022/11/16 02:15:27;;;;;;;35.73;25.23;;;;;;;5.14;100.00;92461.88;5106017;28;20231;-71
2022/11/16 02:18:01;;;;;;;37.27;24.90;;;;;;;4.96;100.00;92455.28;5107060;28;20179;-70
2022/11/16 02:20:43;;;;;;;38.47;25.73;;;;;;;5.13;100.00;92445.56;5107644;28;20218;-71
2022/11/16 02:23:47;;;;;;;36.87;22.87;;;;;;;4.97;100.00;92442.13;5107235;28;20184;-71
2022/11/16 02:26:38;;;;;;;43.70;27.10;;;;;;;4.70;100.00;92446.56;5107412;28;20239;-70
2022/11/16 02:29:19;;;;;;;43.83;25.93;;;;;;;4.85;100.00;92448.47;5106948;28;20207;-69
2022/11/16 02:32:03;;;;;;;48.00;30.90;;;;;;;4.85;100.00;92431.16;5105186;28;20226;-70
2022/11/16 02:34:35;;;;;;;52.37;30.60;;;;;;;4.86;100.00;92440.47;5104790;28;20228;-71
2022/11/16 02:37:04;;;;;;;51.93;31.27;;;;;;;4.84;100.00;92439.19;5107569;28;20180;-70
2022/11/16 02:39:32;;;;;;;59.60;34.93;;;;;;;4.60;100.00;92419.84;5107106;28;20231;-71
2022/11/16 02:42:00;;;;;;;66.67;35.50;;;;;;;4.73;100.00;92432.38;5108255;28;20215;-71
2022/11/16 02:44:33;;;;;;;58.77;34.47;;;;;;;4.65;100.00;92423.22;5103960;28;20198;-70
2022/11/16 02:47:03;;;;;;;56.20;34.93;;;;;;;4.52;100.00;92423.66;5104500;28;20177;-71
2022/11/16 02:49:32;;;;;;;53.77;33.97;;;;;;;4.58;100.00;92427.06;5089201;28;20239;-71
2022/11/16 02:51:58;;;;;;;47.40;30.67;;;;;;;4.57;100.00;92431.47;5107892;28;20195;-71
2022/11/16 02:54:23;;;;;;;47.03;30.77;;;;;;;4.27;100.00;92389.84;5106250;28;20214;-71
2022/11/16 02:57:01;;;;;;;47.20;29.53;;;;;;;4.48;100.00;92425.16;5109452;28;20207;-71
2022/11/16 02:59:32;;;;;;;40.40;27.20;;;;;;;4.62;100.00;92428.13;5106873;28;20869;-70
2022/11/16 03:02:03;;;;;;;39.47;25.83;;;;;;;4.62;100.00;92421.16;5107554;28;20212;-70
2022/11/16 03:04:35;;;;;;;44.07;27.27;;;;;;;4.54;100.00;92420.84;5107433;28;20238;-71
2022/11/16 03:07:04;;;;;;;40.70;27.40;;;;;;;4.42;100.00;92402.88;5108030;28;20200;-71
2022/11/16 03:09:33;;;;;;;40.33;27.23;;;;;;;4.39;100.00;92421.47;5107279;28;20231;-71
2022/11/16 03:12:01;;;;;;;40.80;27.03;;;;;;;4.13;100.00;92424.84;5106148;28;20185;-71
2022/11/16 03:14:35;;;;;;;43.63;26.47;;;;;;;4.29;100.00;92413.66;5106753;28;20207;-72
2022/11/16 03:17:03;;;;;;;38.70;25.83;;;;;;;4.31;100.00;92403.81;5106983;28;20184;-72
2022/11/16 03:19:48;;;;;;;32.13;24.63;;;;;;;4.15;100.00;92386.66;5108300;28;20235;-71
2022/11/16 03:22:23;;;;;;;37.07;23.13;;;;;;;4.29;100.00;92403.31;5108199;28;20192;-71
2022/11/16 03:24:49;;;;;;;37.97;24.63;;;;;;;4.14;100.00;92384.31;5104987;28;20753;-71
2022/11/16 03:27:18;;;;;;;37.73;26.83;;;;;;;4.01;100.00;92395.03;5106718;28;20211;-71
2022/11/16 03:29:54;;;;;;;47.40;27.33;;;;;;;4.33;100.00;92388.88;5105502;28;20269;-70
2022/11/16 03:32:28;;;;;;;52.60;28.30;;;;;;;4.43;100.00;92399.31;5108437;28;20187;-71
2022/11/16 03:35:24;;;;;;;42.00;26.23;;;;;;;4.40;100.00;92399.00;5101615;28;20223;-71
2022/11/16 03:37:52;;;;;;;52.53;28.17;;;;;;;4.37;100.00;92402.09;5075317;28;20208;-72
2022/11/16 03:40:19;;;;;;;49.63;31.17;;;;;;;4.07;100.00;92379.34;5090203;28;20247;-71
2022/11/16 03:42:48;;;;;;;47.87;29.73;;;;;;;4.20;100.00;92404.75;5091775;28;20177;-70
2022/11/16 03:45:15;;;;;;;45.40;26.63;;;;;;;4.10;100.00;92389.19;5097868;28;20231;-71
2022/11/16 03:47:41;;;;;;;42.03;26.53;;;;;;;4.16;100.00;92406.28;5112757;28;20247;-71
2022/11/16 03:50:08;;;;;;;38.37;25.23;;;;;;;4.16;100.00;92410.66;5110092;28;20212;-71
2022/11/16 03:52:34;;;;;;;47.93;28.63;;;;;;;4.22;100.00;92412.25;5109597;28;20223;-71
2022/11/16 03:54:59;;;;;;;52.47;34.30;;;;;;;4.07;100.00;92392.25;5111951;28;20277;-71
2022/11/16 03:57:25;;;;;;;57.20;34.90;;;;;;;4.28;100.00;92399.16;5111288;28;20188;-71
2022/11/16 03:59:51;;;;;;;65.37;33.90;;;;;;;4.32;100.00;92392.50;5103278;28;20670;-70
2022/11/16 04:02:16;;;;;;;60.27;35.60;;;;;;;4.26;100.00;92384.94;5090791;28;20224;-71
2022/11/16 04:24:19;;;;;;;48.60;30.93;;;;;;;4.05;100.00;92354.78;5100233;28;20254;-71
2022/11/16 04:29:34;;;;;;;51.37;31.77;;;;;;;3.98;100.00;92349.81;5099408;28;20246;-70
2022/11/16 04:37:47;;;;;;;44.77;29.83;;;;;;;4.52;100.00;92371.97;5109757;28;20200;-71
2022/11/16 04:40:20;;;;;;;43.40;28.50;;;;;;;4.49;100.00;92356.97;5108826;28;20242;-70
2022/11/16 04:42:56;;;;;;;42.47;26.60;;;;;;;4.71;100.00;92365.41;5107698;28;20203;-69
2022/11/16 04:48:08;;;;;;;49.30;29.13;;;;;;;4.88;100.00;92365.22;5106858;28;20195;-68
2022/11/16 04:50:34;;;;;;;47.90;28.80;;;;;;;5.03;100.00;92370.47;5108942;28;20224;-68
2022/11/16 04:52:59;;;;;;;44.03;28.73;;;;;;;5.05;100.00;92359.88;5108541;28;20200;-68
2022/11/16 04:55:25;;;;;;;49.97;31.73;;;;;;;4.78;100.00;92327.16;5108152;28;20243;-68
2022/11/16 04:57:51;;;;;;;48.70;29.93;;;;;;;5.10;100.00;92362.50;5108753;28;20172;-68
2022/11/16 05:00:17;;;;;;;46.67;29.57;;;;;;;5.06;100.00;92340.75;5107950;28;20489;-69
2022/11/16 05:02:42;;;;;;;52.10;31.03;;;;;;;5.12;100.00;92350.84;5109219;28;20212;-70
2022/11/16 05:05:08;;;;;;;43.30;27.77;;;;;;;5.18;100.00;92355.06;5106668;28;20219;-70
2022/11/16 05:07:34;;;;;;;72.50;37.77;;;;;;;5.08;100.00;92359.38;5106717;28;20195;-69
2022/11/16 05:10:02;;;;;;;83.80;43.40;;;;;;;4.99;100.00;92364.25;5106589;28;20235;-72
2022/11/16 05:12:28;;;;;;;81.87;42.83;;;;;;;4.70;100.00;92353.47;5106435;28;20173;-69
2022/11/16 05:14:54;;;;;;;74.70;42.03;;;;;;;4.55;100.00;92366.31;5106400;28;20223;-68
2022/11/16 05:17:21;;;;;;;72.30;40.10;;;;;;;4.62;100.00;92345.41;5106757;28;20179;-67
2022/11/16 05:22:31;;;;;;;79.60;42.40;;;;;;;4.83;100.00;92353.06;5107392;28;20244;-69
2022/11/16 05:24:56;;;;;;;85.03;44.13;;;;;;;4.84;100.00;92338.31;5107498;28;20223;-67
2022/11/16 05:27:23;;;;;;;77.60;38.90;;;;;;;5.22;100.00;92350.13;5108370;28;20180;-69
2022/11/16 05:29:48;;;;;;;66.33;37.47;;;;;;;5.12;100.00;92350.09;5106881;28;20228;-71
2022/11/16 05:32:14;;;;;;;66.70;37.27;;;;;;;5.30;100.00;92344.47;5107500;28;20184;-72
2022/11/16 05:34:40;;;;;;;69.00;36.67;;;;;;;5.34;100.00;92342.97;5107339;28;20299;-72
2022/11/16 05:37:05;;;;;;;77.87;37.00;;;;;;;5.43;100.00;92346.63;5108005;28;20215;-70
2022/11/16 05:39:30;;;;;;;74.70;38.30;;;;;;;5.43;100.00;92342.19;5107321;28;20212;-71
2022/11/16 05:41:56;;;;;;;79.10;40.30;;;;;;;5.40;100.00;92352.31;5108640;28;20251;-71
2022/11/16 05:44:22;;;;;;;67.43;38.47;;;;;;;5.48;100.00;92342.22;5102776;28;20204;-70
2022/11/16 05:46:48;;;;;;;74.73;37.70;;;;;;;5.48;100.00;92352.56;5107377;28;20195;-70
2022/11/16 05:49:14;;;;;;;66.23;37.10;;;;;;;5.79;100.00;92361.25;5105616;28;20192;-69
2022/11/16 05:51:41;;;;;;;68.10;36.77;;;;;;;5.80;100.00;92358.38;5107940;28;20180;-68
2022/11/16 05:54:07;;;;;;;68.33;36.27;;;;;;;5.98;100.00;92339.00;5103583;28;20280;-71
2022/11/16 05:56:33;;;;;;;66.77;36.17;;;;;;;6.07;100.00;92342.66;5084989;28;20213;-71
2022/11/16 05:58:59;;;;;;;65.73;34.47;;;;;;;6.13;100.00;92359.78;5087487;28;20179;-71
2022/11/16 06:01:25;;;;;;;75.20;39.00;;;;;;;6.02;100.00;92365.97;5105861;28;20299;-71
2022/11/16 06:03:51;;;;;;;74.40;41.73;;;;;;;5.99;100.00;92340.59;5108409;28;20184;-70
2022/11/16 06:06:16;;;;;;;80.33;43.97;;;;;;;5.88;100.00;92357.13;5107020;28;20227;-69
2022/11/16 06:08:42;;;;;;;73.70;40.63;;;;;;;5.66;100.00;92361.72;5105727;28;20191;-70
2022/11/16 06:11:09;;;;;;;83.60;44.07;;;;;;;5.45;100.00;92365.28;5107735;28;20223;-70
2022/11/16 06:13:35;;;;;;;80.77;44.57;;;;;;;5.37;100.00;92358.75;5106504;28;20208;-70
2022/11/16 06:16:02;;;;;;;108.03;54.07;;;;;;;5.26;100.00;92370.06;5106228;28;20220;-71
2022/11/16 06:18:27;;;;;;;116.03;64.83;;;;;;;5.18;100.00;92359.44;5107678;28;20180;-66
2022/11/16 06:20:53;;;;;;;104.67;51.23;;;;;;;5.38;100.00;92347.38;5107911;28;20242;-66
2022/11/16 06:23:18;;;;;;;86.60;44.03;;;;;;;5.34;100.00;92356.66;5108528;28;20188;-67
2022/11/16 06:25:44;;;;;;;86.87;44.80;;;;;;;5.44;100.00;92348.16;5104448;28;21790;-68
2022/11/16 06:28:10;;;;;;;80.23;44.50;;;;;;;5.46;100.00;92364.22;5106913;28;20199;-75
2022/11/16 06:30:37;;;;;;;77.90;45.60;;;;;;;5.31;100.00;92343.47;5094767;28;20288;-69
2022/11/16 06:33:03;;;;;;;79.53;43.07;;;;;;;5.25;100.00;92362.56;5087735;28;20282;-70
2022/11/16 06:35:28;;;;;;;80.80;41.40;;;;;;;5.47;100.00;92363.19;5097628;28;20236;-70
2022/11/16 06:37:54;;;;;;;87.10;43.83;;;;;;;5.64;100.00;92351.59;5107479;28;20184;-71
2022/11/16 06:40:20;;;;;;;83.90;43.37;;;;;;;5.87;100.00;92368.50;5104486;28;20232;-69
2022/11/16 06:42:45;;;;;;;92.13;45.73;;;;;;;5.83;100.00;92354.53;5107017;28;20184;-70
2022/11/16 06:45:10;;;;;;;89.30;42.67;;;;;;;6.09;100.00;92356.13;5099790;28;20250;-71
2022/11/16 06:47:36;;;;;;;82.93;46.50;;;;;;;6.05;100.00;92360.28;5105916;28;20272;-70
2022/11/16 06:50:02;;;;;;;83.87;43.67;;;;;;;6.17;100.00;92355.63;5104060;28;20225;-71
2022/11/16 06:52:27;;;;;;;81.67;45.60;;;;;;;6.21;100.00;92343.72;5106638;28;20184;-70
2022/11/16 06:54:52;;;;;;;81.40;42.13;;;;;;;6.37;100.00;92347.88;5107603;28;20253;-69
2022/11/16 06:57:18;;;;;;;87.53;47.03;;;;;;;6.33;100.00;92328.69;5107418;28;20678;-70
2022/11/16 06:59:43;;;;;;;88.33;43.33;;;;;;;6.39;100.00;92361.34;5107162;28;20243;-69
2022/11/16 07:02:09;;;;;;;98.43;45.23;;;;;;;6.46;100.00;92351.47;5106961;28;20177;-69
2022/11/16 07:04:35;;;;;;;87.50;40.50;;;;;;;6.56;100.00;92356.69;5104137;28;20212;-71
2022/11/16 07:07:00;;;;;;;98.07;45.20;;;;;;;6.42;100.00;92350.47;5106683;28;20193;-71
2022/11/16 07:09:25;;;;;;;79.83;42.80;;;;;;;6.30;100.00;92321.44;5104292;28;20199;-71
2022/11/16 07:11:51;;;;;;;88.37;42.37;;;;;;;6.38;100.00;92357.22;5110001;28;20187;-71
2022/11/16 07:14:16;;;;;;;92.70;42.50;;;;;;;6.57;100.00;92333.09;5108603;28;20216;-70
2022/11/16 07:16:42;;;;;;;79.93;40.13;;;;;;;6.86;100.00;92345.50;5088694;28;20192;-70
2022/11/16 07:19:08;;;;;;;85.30;39.93;;;;;;;6.82;100.00;92355.63;5089479;28;20287;-72
2022/11/16 07:21:35;;;;;;;70.43;36.20;;;;;;;6.85;100.00;92352.50;5096624;28;20201;-70
2022/11/16 07:24:01;;;;;;;73.27;35.97;;;;;;;6.69;100.00;92335.41;5097429;28;20181;-70
2022/11/16 07:26:27;;;;;;;73.30;37.23;;;;;;;6.79;100.00;92353.56;5085065;28;20222;-71
2022/11/16 07:28:53;;;;;;;91.37;43.00;;;;;;;6.84;100.00;92352.75;5082594;28;20205;-72
2022/11/16 07:31:18;;;;;;;96.33;43.93;;;;;;;6.65;100.00;92357.72;5107358;28;20242;-72
2022/11/16 07:33:43;;;;;;;84.80;43.87;;;;;;;6.76;100.00;92348.88;5109811;28;21183;-71
2022/11/16 07:36:11;;;;;;;88.30;45.27;;;;;;;6.72;100.00;92349.66;5108225;28;20296;-71
2022/11/16 07:38:37;;;;;;;91.43;43.80;;;;;;;6.60;100.00;92349.16;5110376;28;20211;-71
2022/11/16 07:41:05;;;;;;;86.90;41.30;;;;;;;6.63;100.00;92338.28;5094704;28;20236;-71
2022/11/16 07:43:33;;;;;;;85.33;42.40;;;;;;;6.56;100.00;92346.31;5088942;28;20204;-73
2022/11/16 07:46:07;;;;;;;86.73;40.10;;;;;;;6.86;100.00;92350.69;5090365;28;20243;-72
2022/11/16 07:48:33;;;;;;;95.37;42.47;;;;;;;6.73;100.00;92343.44;5089980;28;20196;-73
2022/11/16 07:51:03;;;;;;;79.13;39.03;;;;;;;6.86;100.00;92341.09;5087944;28;20217;-72
2022/11/16 07:53:29;;;;;;;90.40;37.70;;;;;;;7.00;100.00;92339.53;5089242;28;20208;-71
2022/11/16 07:55:55;;;;;;;87.80;38.13;;;;;;;7.00;100.00;92344.72;5102925;28;20222;-72
2022/11/16 07:58:20;;;;;;;85.57;38.47;;;;;;;7.01;100.00;92335.88;5109604;28;20180;-72
2022/11/16 08:00:46;;;;;;;71.47;32.47;;;;;;;7.20;100.00;92330.88;5109142;28;20220;-71
2022/11/16 08:03:11;;;;;;;69.03;33.33;;;;;;;7.12;100.00;92342.59;5107154;28;20196;-72
2022/11/16 08:05:37;;;;;;;65.70;32.70;;;;;;;7.09;100.00;92337.16;5108307;28;20224;-72
2022/11/16 08:08:03;;;;;;;60.57;27.67;;;;;;;7.20;100.00;92339.47;5109616;28;20265;-71
2022/11/16 08:10:30;;;;;;;69.57;31.47;;;;;;;7.26;100.00;92340.22;5108483;28;20236;-72
2022/11/16 08:12:56;;;;;;;66.87;30.27;;;;;;;7.25;100.00;92333.47;5109564;28;20208;-72
2022/11/16 08:15:22;;;;;;;65.23;30.17;;;;;;;7.46;100.00;92327.16;5107894;28;20215;-72
2022/11/16 08:17:47;;;;;;;62.87;29.33;;;;;;;7.41;100.00;92302.00;5108247;28;20220;-72
2022/11/16 08:20:13;;;;;;;58.83;27.03;;;;;;;7.51;100.00;92312.34;5107417;28;20228;-72
2022/11/16 08:22:38;;;;;;;54.00;29.10;;;;;;;7.71;100.00;92314.06;5109553;28;20188;-72
2022/11/16 08:25:04;;;;;;;53.10;26.57;;;;;;;7.52;100.00;92293.13;5102344;28;20231;-72
2022/11/16 08:27:31;;;;;;;61.53;28.53;;;;;;;7.76;100.00;92301.84;5088408;28;20937;-71
2022/11/16 08:29:56;;;;;;;58.53;27.80;;;;;;;7.98;100.00;92312.59;5097154;28;20646;-70
2022/11/16 08:32:22;;;;;;;55.10;28.03;;;;;;;7.92;100.00;92307.72;5111257;28;20191;-72
2022/11/16 08:34:47;;;;;;;52.30;25.73;;;;;;;8.01;100.00;92304.28;5105293;28;20294;-71
2022/11/16 08:37:12;;;;;;;51.57;26.33;;;;;;;8.06;100.00;92299.03;5110479;28;20187;-72
2022/11/16 08:39:38;;;;;;;46.97;25.73;;;;;;;8.10;100.00;92297.47;5109264;28;20243;-72
2022/11/16 08:42:03;;;;;;;51.20;26.30;;;;;;;8.02;100.00;92299.84;5108082;28;20240;-72
2022/11/16 08:44:29;;;;;;;48.80;26.10;;;;;;;8.13;100.00;92298.72;5108848;28;20252;-71
2022/11/16 08:46:54;;;;;;;49.87;25.53;;;;;;;7.99;100.00;92280.38;5109487;28;20196;-72
2022/11/16 08:49:19;;;;;;;49.00;26.40;;;;;;;8.07;100.00;92305.00;5108342;28;20215;-72
2022/11/16 08:51:45;;;;;;;49.83;26.07;;;;;;;7.73;100.00;92279.00;5109090;28;21184;-72
2022/11/16 08:54:10;;;;;;;50.33;26.37;;;;;;;7.60;100.00;92279.56;5106801;28;20215;-71
2022/11/16 08:56:36;;;;;;;51.37;27.33;;;;;;;7.53;100.00;92302.44;5090341;28;20192;-71
2022/11/16 08:59:01;;;;;;;58.00;27.27;;;;;;;7.61;100.00;92298.53;5090116;28;21253;-72
2022/11/16 09:01:29;;;;;;;53.70;27.17;;;;;;;7.37;100.00;92300.19;5109921;28;20500;-72
2022/11/16 09:03:54;;;;;;;55.63;29.33;;;;;;;7.35;100.00;92300.47;5108762;28;20198;-72
2022/11/16 09:06:21;;;;;;;44.73;25.67;;;;;;;7.29;100.00;92309.31;5107500;28;20220;-73
2022/11/16 09:08:47;;;;;;;47.73;25.70;;;;;;;7.21;100.00;92302.06;5108850;28;20198;-72
2022/11/16 09:11:16;;;;;;;56.83;27.70;;;;;;;7.08;100.00;92287.06;5108357;28;20235;-71
2022/11/16 09:13:43;;;;;;;48.93;26.90;;;;;;;7.40;100.00;92302.25;5109411;28;20263;-72
2022/11/16 09:16:08;;;;;;;58.00;29.20;;;;;;;7.20;100.00;92292.75;5108962;28;20253;-71
2022/11/16 09:18:34;;;;;;;57.27;28.17;;;;;;;7.02;100.00;92272.53;5106239;28;20201;-71
2022/11/16 09:21:00;;;;;;;51.60;27.07;;;;;;;7.28;100.00;92284.41;5108317;28;20299;-71
2022/11/16 09:23:25;;;;;;;56.10;29.73;;;;;;;6.86;100.00;92260.69;5108008;28;20196;-70
2022/11/16 09:25:50;;;;;;;50.27;28.03;;;;;;;7.02;100.00;92249.19;5108452;28;20231;-70
2022/11/16 09:28:17;;;;;;;46.47;26.77;;;;;;;7.21;100.00;92262.34;5105236;28;20192;-70
2022/11/16 09:30:44;;;;;;;58.73;28.93;;;;;;;7.19;100.00;92260.03;5104948;28;20224;-70
2022/11/16 09:33:10;;;;;;;54.97;28.80;;;;;;;7.19;100.00;92257.41;5107604;28;20963;-71
2022/11/16 09:35:35;;;;;;;48.80;26.27;;;;;;;7.28;100.00;92240.28;5108412;28;20243;-70
2022/11/16 09:38:01;;;;;;;54.20;28.40;;;;;;;7.33;100.00;92237.63;5109016;28;20192;-71
2022/11/16 09:40:34;;;;;;;50.17;28.33;;;;;;;7.25;100.00;92227.81;5107799;28;20220;-70
2022/11/16 09:43:30;;;;;;;49.77;28.43;;;;;;;7.40;100.00;92222.53;5107859;28;20211;-70
2022/11/16 09:46:20;;;;;;;54.30;28.33;;;;;;;7.17;100.00;92232.78;5107824;28;20232;-71
2022/11/16 09:48:48;;;;;;;52.33;29.73;;;;;;;7.29;100.00;92215.84;5107454;28;20214;-70
2022/11/16 09:51:15;;;;;;;48.07;27.50;;;;;;;7.27;100.00;92223.13;5107779;28;20216;-71
2022/11/16 09:53:46;;;;;;;47.30;26.53;;;;;;;7.48;100.00;92219.38;5107518;28;20222;-71
2022/11/16 09:56:18;;;;;;;45.73;28.40;;;;;;;7.27;100.00;92223.13;5106623;28;20235;-71
2022/11/16 09:59:09;;;;;;;47.47;27.70;;;;;;;7.36;100.00;92221.50;5108453;28;20196;-72
2022/11/16 10:01:49;;;;;;;51.93;31.37;;;;;;;7.30;100.00;92207.00;5106517;28;20216;-69
2022/11/16 10:04:26;;;;;;;52.20;30.67;;;;;;;7.34;100.00;92215.84;5106540;28;20184;-72
2022/11/16 10:06:53;;;;;;;47.20;28.20;;;;;;;7.55;100.00;92200.88;5105486;28;20243;-71
2022/11/16 10:09:19;;;;;;;47.30;27.83;;;;;;;7.48;100.00;92209.00;5106404;28;20180;-71
2022/11/16 10:12:00;;;;;;;44.03;27.10;;;;;;;7.35;100.00;92152.47;5102162;28;20251;-66
2022/11/16 10:14:37;;;;;;;41.97;28.30;;;;;;;7.65;100.00;92193.81;5107254;28;20227;-71
2022/11/16 10:17:24;;;;;;;42.00;27.40;;;;;;;7.81;100.00;92187.44;5107873;28;21177;-70
2022/11/16 10:20:03;;;;;;;37.27;25.40;;;;;;;7.90;100.00;92185.84;5104359;28;20223;-71
2022/11/16 10:23:06;;;;;;;38.43;25.27;;;;;;;8.18;100.00;92174.69;5105754;28;20251;-70
2022/11/16 10:25:41;;;;;;;36.10;23.67;;;;;;;8.59;100.00;92169.88;5107284;28;20223;-70
2022/11/16 10:28:36;;;;;;;41.73;26.43;;;;;;;8.52;100.00;92176.44;5106012;28;20176;-70
2022/11/16 10:31:15;;;;;;;41.67;25.37;;;;;;;8.82;100.00;92165.72;5104583;28;20224;-70
2022/11/16 10:33:44;;;;;;;40.70;25.30;;;;;;;8.93;99.42;92152.31;5106297;28;20218;-70
2022/11/16 10:36:14;;;;;;;41.73;25.93;;;;;;;8.87;97.04;92163.06;5107893;28;20227;-70
2022/11/16 10:38:42;;;;;;;35.70;24.03;;;;;;;8.75;98.11;92155.66;5107885;28;20222;-71
2022/11/16 10:41:29;;;;;;;38.50;25.17;;;;;;;8.76;98.79;92159.81;5107723;28;20216;-70
2022/11/16 10:43:57;;;;;;;38.27;25.77;;;;;;;8.74;98.22;92148.91;5107741;28;20176;-70
2022/11/16 10:46:34;;;;;;;42.43;26.07;;;;;;;9.27;96.00;92158.13;5111519;28;20215;-71
2022/11/16 10:49:22;;;;;;;41.70;26.23;;;;;;;9.09;95.83;92155.50;5109529;28;20187;-70
2022/11/16 10:51:48;;;;;;;44.23;27.83;;;;;;;9.03;97.27;92152.19;5088612;28;20216;-70
2022/11/16 10:54:15;;;;;;;40.70;24.83;;;;;;;8.94;96.40;92153.84;5088906;28;20227;-71
2022/11/16 10:56:44;;;;;;;41.43;28.47;;;;;;;8.95;97.67;92144.22;5102783;28;20192;-70
2022/11/16 10:59:16;;;;;;;52.00;29.37;;;;;;;8.96;97.89;92135.34;5099590;28;20200;-71
2022/11/16 11:01:50;;;;;;;47.07;29.07;;;;;;;9.12;98.02;92134.13;5102017;28;20228;-71
2022/11/16 11:04:27;;;;;;;49.00;28.83;;;;;;;9.24;96.54;92122.22;5101652;28;20192;-70
2022/11/16 11:07:01;;;;;;;55.97;30.23;;;;;;;9.53;97.13;92124.66;5099421;28;20240;-71
2022/11/16 11:09:29;;;;;;;48.93;29.57;;;;;;;9.87;93.62;92121.81;5100951;28;20177;-70
2022/11/16 11:15:26;;;;;;;38.20;25.10;;;;;;;10.16;90.58;92115.34;5097289;28;20231;-70
2022/11/16 11:18:22;;;;;;;36.17;24.87;;;;;;;10.24;90.15;92117.25;5109156;28;20252;-70
2022/11/16 11:21:05;;;;;;;37.60;24.87;;;;;;;10.29;89.73;92106.75;5110395;28;20227;-70
2022/11/16 11:23:58;;;;;;;31.57;22.20;;;;;;;10.23;88.94;92102.69;5105434;28;20244;-70
2022/11/16 11:26:33;;;;;;;35.53;23.13;;;;;;;10.18;89.77;92089.72;5107713;28;20220;-70
2022/11/16 11:29:00;;;;;;;41.07;25.33;;;;;;;10.18;90.87;92094.94;5111180;28;20234;-70
2022/11/16 11:31:42;;;;;;;38.73;25.50;;;;;;;10.20;90.15;92092.81;5110950;28;20223;-70
2022/11/16 11:34:30;;;;;;;33.83;24.30;;;;;;;10.25;90.20;92082.31;5109590;28;20306;-71
2022/11/16 11:37:05;;;;;;;41.37;27.17;;;;;;;10.28;91.00;92079.13;5109613;28;20200;-70
2022/11/16 11:39:35;;;;;;;39.37;27.17;;;;;;;10.53;89.08;92089.09;5110301;28;20225;-71
2022/11/16 11:42:05;;;;;;;38.33;25.97;;;;;;;10.83;87.50;92088.47;5109934;28;20196;-71
2022/11/16 11:44:49;;;;;;;34.07;22.27;;;;;;;10.79;87.01;92071.84;5106017;28;20228;-70
2022/11/16 11:47:39;;;;;;;39.90;26.53;;;;;;;10.80;87.93;92081.22;5090233;28;20185;-70
2022/11/16 11:50:36;;;;;;;34.80;24.37;;;;;;;11.05;86.54;92077.31;5097248;28;20988;-70
2022/11/16 11:53:07;;;;;;;41.37;24.70;;;;;;;10.89;86.99;92068.25;5109220;28;20227;-70
2022/11/16 11:55:33;;;;;;;39.57;27.20;;;;;;;10.83;87.94;92069.44;5105334;28;20216;-70
2022/11/16 11:58:00;;;;;;;45.90;25.87;;;;;;;10.81;86.96;92061.91;5109468;28;20263;-70
2022/11/16 12:00:29;;;;;;;35.53;24.70;;;;;;;10.88;87.30;92053.66;5108699;28;20221;-71
2022/11/16 12:03:34;;;;;;;36.03;25.33;;;;;;;11.17;85.85;92059.28;5110669;28;20175;-70
2022/11/16 12:06:30;;;;;;;36.13;25.60;;;;;;;11.22;85.52;92049.50;5109941;28;20232;-70
2022/11/16 12:09:32;;;;;;;35.83;24.60;;;;;;;11.42;84.64;92057.94;5107440;28;20257;-70